createdAt,value
2019-05-26T00:02:45.373Z,3.10
2019-05-26T00:07:03.789Z,1.87
2019-05-26T00:11:22.426Z,1.40
2019-05-26T00:15:41.151Z,2.50
2019-05-26T00:19:59.256Z,3.60
2019-05-26T00:24:17.840Z,1.60
2019-05-26T00:28:36.131Z,1.53
2019-05-26T00:32:55.369Z,1.40
2019-05-26T00:37:13.983Z,1.90
2019-05-26T00:41:32.459Z,1.60
2019-05-26T00:45:50.632Z,1.30
2019-05-26T00:50:11.365Z,1.60
2019-05-26T00:54:29.601Z,1.63
2019-05-26T00:58:48.073Z,1.57
2019-05-26T01:03:06.320Z,1.47
2019-05-26T01:07:24.622Z,1.70
2019-05-26T01:11:43.284Z,1.73
2019-05-26T01:16:01.937Z,2.07
2019-05-26T01:20:20.848Z,2.00
2019-05-26T01:24:39.370Z,1.80
2019-05-26T01:28:57.507Z,1.93
2019-05-26T01:33:15.670Z,2.00
2019-05-26T01:37:34.573Z,1.40
2019-05-26T01:41:53.105Z,1.70
2019-05-26T01:46:11.316Z,1.80
2019-05-26T01:50:29.783Z,1.70
2019-05-26T01:54:48.749Z,1.73
2019-05-26T01:59:08.031Z,1.87
2019-05-26T02:03:26.005Z,1.90
2019-05-26T02:07:44.758Z,1.77
2019-05-26T02:12:03.099Z,2.30
2019-05-26T02:16:21.223Z,1.90
2019-05-26T02:20:39.405Z,2.03
2019-05-26T02:24:57.680Z,1.90
2019-05-26T02:29:15.867Z,2.60
2019-05-26T02:33:34.314Z,2.27
2019-05-26T02:37:52.518Z,1.87
2019-05-26T02:42:10.633Z,2.30
2019-05-26T02:46:29.173Z,2.03
2019-05-26T02:50:47.497Z,2.43
2019-05-26T02:55:05.847Z,2.10
2019-05-26T02:59:24.359Z,1.80
2019-05-26T03:03:42.872Z,2.30
2019-05-26T03:08:02.926Z,2.50
2019-05-26T03:12:25.137Z,2.40
2019-05-26T03:16:46.744Z,2.20
2019-05-26T03:21:06.077Z,2.60
2019-05-26T03:25:24.550Z,2.30
2019-05-26T03:29:42.666Z,2.40
2019-05-26T03:34:01.084Z,2.90
2019-05-26T03:38:19.297Z,1.90
2019-05-26T03:42:37.454Z,2.57
2019-05-26T03:46:56.963Z,2.23
2019-05-26T03:51:15.761Z,2.27
2019-05-26T03:55:33.995Z,2.57
2019-05-26T03:59:52.505Z,2.43
2019-05-26T04:04:10.647Z,2.17
2019-05-26T04:08:28.745Z,2.60
2019-05-26T04:12:46.873Z,2.47
2019-05-26T04:17:05.117Z,2.43
2019-05-26T04:21:23.335Z,1.90
2019-05-26T04:25:41.461Z,2.23
2019-05-26T04:30:00.325Z,2.00
2019-05-26T04:34:18.738Z,2.17
2019-05-26T04:38:36.890Z,1.97
2019-05-26T04:42:54.991Z,2.60
2019-05-26T04:47:13.249Z,1.93
2019-05-26T04:51:32.082Z,2.90
2019-05-26T04:55:50.581Z,2.50
2019-05-26T05:00:10.680Z,2.20
2019-05-26T05:04:29.712Z,2.07
2019-05-26T05:08:47.989Z,2.80
2019-05-26T05:13:06.004Z,2.80
2019-05-26T05:17:24.574Z,2.40
2019-05-26T05:21:42.784Z,2.07
2019-05-26T05:26:00.966Z,2.43
2019-05-26T05:30:20.960Z,2.63
2019-05-26T05:34:40.012Z,2.40
2019-05-26T05:38:58.240Z,2.77
2019-05-26T05:43:16.652Z,2.33
2019-05-26T05:47:34.793Z,2.40
2019-05-26T05:51:53.363Z,3.00
2019-05-26T05:56:11.546Z,2.27
2019-05-26T06:00:29.938Z,2.70
2019-05-26T06:04:48.125Z,2.60
2019-05-26T06:09:07.719Z,2.77
2019-05-26T06:13:25.853Z,2.47
2019-05-26T06:17:44.018Z,2.40
2019-05-26T06:22:02.174Z,2.60
2019-05-26T06:26:21.136Z,3.07
2019-05-26T06:30:39.260Z,2.17
2019-05-26T06:34:57.930Z,2.60
2019-05-26T06:39:16.188Z,2.07
2019-05-26T06:43:34.335Z,2.40
2019-05-26T06:47:52.432Z,2.40
2019-05-26T06:52:11.093Z,2.80
2019-05-26T06:56:29.557Z,2.30
2019-05-26T07:00:47.686Z,2.33
2019-05-26T07:05:06.304Z,2.67
2019-05-26T07:09:24.580Z,2.83
2019-05-26T07:13:42.934Z,2.47
2019-05-26T07:18:01.116Z,2.77
2019-05-26T07:22:20.529Z,2.67
2019-05-26T07:26:38.731Z,2.57
2019-05-26T07:30:56.983Z,2.47
2019-05-26T07:35:15.596Z,2.70
2019-05-26T07:39:34.219Z,2.33
2019-05-26T07:43:53.011Z,2.30
2019-05-26T07:48:11.314Z,2.80
2019-05-26T07:52:29.833Z,3.07
2019-05-26T07:56:48.278Z,2.83
2019-05-26T08:01:06.450Z,3.00
2019-05-26T08:05:25.655Z,2.70
2019-05-26T08:09:44.252Z,2.87
2019-05-26T08:14:02.476Z,2.37
2019-05-26T08:18:20.669Z,2.77
2019-05-26T08:22:39.705Z,2.60
2019-05-26T08:26:57.904Z,2.70
2019-05-26T08:31:16.202Z,2.70
2019-05-26T08:35:34.373Z,2.50
2019-05-26T08:39:52.654Z,2.93
2019-05-26T08:44:10.962Z,2.43
2019-05-26T08:48:30.210Z,3.23
2019-05-26T08:52:48.471Z,3.07
2019-05-26T08:57:06.868Z,2.80
2019-05-26T09:01:25.831Z,2.43
2019-05-26T09:05:44.408Z,3.03
2019-05-26T09:10:03.420Z,3.13
2019-05-26T09:14:25.381Z,3.30
2019-05-26T09:18:42.212Z,2.93
2019-05-26T09:23:00.686Z,3.30
2019-05-26T09:27:19.031Z,2.67
2019-05-26T09:31:37.501Z,2.50
2019-05-26T09:35:55.777Z,2.80
2019-05-26T09:40:15.001Z,2.87
2019-05-26T09:44:34.806Z,2.97
2019-05-26T09:48:53.878Z,3.00
2019-05-26T09:53:12.608Z,2.90
2019-05-26T09:57:30.857Z,2.90
2019-05-26T10:01:49.411Z,2.67
2019-05-26T10:06:07.961Z,2.93
2019-05-26T10:10:27.005Z,2.67
2019-05-26T10:14:47.737Z,2.60
2019-05-26T10:19:05.329Z,3.27
2019-05-26T10:23:23.634Z,2.90
2019-05-26T10:27:42.053Z,2.80
2019-05-26T10:32:01.540Z,2.70
2019-05-26T10:36:19.889Z,2.70
2019-05-26T10:40:38.011Z,3.40
2019-05-26T10:44:56.372Z,3.30
2019-05-26T10:49:14.513Z,2.63
2019-05-26T10:53:34.205Z,3.60
2019-05-26T10:57:52.401Z,2.63
2019-05-26T11:02:10.565Z,3.00
2019-05-26T11:06:29.138Z,2.13
2019-05-26T11:10:47.458Z,2.30
2019-05-26T11:15:06.774Z,2.27
2019-05-26T11:19:25.516Z,2.53
2019-05-26T11:23:44.039Z,2.97
2019-05-26T11:28:02.314Z,2.57
2019-05-26T11:32:20.570Z,3.80
2019-05-26T11:36:39.248Z,2.80
2019-05-26T11:40:58.568Z,2.90
2019-05-26T11:45:19.116Z,3.17
2019-05-26T11:49:37.707Z,2.77
2019-05-26T11:53:55.856Z,2.50
2019-05-26T11:58:14.339Z,2.60
2019-05-26T12:02:32.414Z,3.37
2019-05-26T12:06:50.718Z,3.37
2019-05-26T12:11:08.946Z,3.03
2019-05-26T12:15:27.520Z,2.93
2019-05-26T12:19:46.087Z,3.03
2019-05-26T12:24:04.717Z,2.57
2019-05-26T12:28:22.866Z,2.27
2019-05-26T12:32:41.169Z,3.10
2019-05-26T12:36:59.363Z,2.67
2019-05-26T12:41:18.270Z,2.63
2019-05-26T12:45:37.265Z,3.20
2019-05-26T12:49:56.031Z,2.83
2019-05-26T12:54:15.291Z,2.10
2019-05-26T12:58:33.629Z,3.07
2019-05-26T13:02:51.925Z,2.53
2019-05-26T13:07:10.442Z,2.13
2019-05-26T13:11:28.728Z,2.07
2019-05-26T13:15:47.042Z,2.00
2019-05-26T13:20:05.964Z,1.80
2019-05-26T13:24:24.519Z,2.10
2019-05-26T13:28:42.992Z,1.40
2019-05-26T13:33:01.134Z,2.93
2019-05-26T13:37:19.647Z,1.73
2019-05-26T13:41:37.885Z,1.50
2019-05-26T13:45:56.850Z,1.53
2019-05-26T13:50:15.909Z,1.83
2019-05-26T13:54:35.441Z,1.70
2019-05-26T13:58:53.709Z,2.27
2019-05-26T14:03:13.654Z,1.60
2019-05-26T14:07:31.911Z,1.97
2019-05-26T14:11:50.040Z,1.40
2019-05-26T14:16:08.183Z,1.73
2019-05-26T14:20:40.123Z,1.40
2019-05-26T14:24:58.532Z,1.70
2019-05-26T14:29:16.886Z,1.47
2019-05-26T14:33:35.634Z,1.50
2019-05-26T14:37:54.922Z,1.37
2019-05-26T14:42:13.734Z,1.30
2019-05-26T14:46:32.527Z,1.10
2019-05-26T14:50:51.439Z,1.47
2019-05-26T14:55:11.627Z,1.17
2019-05-26T14:59:30.003Z,1.30
2019-05-26T15:03:49.499Z,1.20
2019-05-26T15:08:07.739Z,1.30
2019-05-26T15:12:27.193Z,1.30
2019-05-26T15:16:46.478Z,1.50
2019-05-26T15:21:05.559Z,1.70
2019-05-26T15:25:24.695Z,1.40
2019-05-26T15:29:44.256Z,1.17
2019-05-26T15:34:04.348Z,1.03
2019-05-26T15:38:23.756Z,1.60
2019-05-26T15:42:44.225Z,1.30
2019-05-26T15:47:03.650Z,1.57
2019-05-26T15:51:22.663Z,1.20
2019-05-26T15:55:42.116Z,1.53
2019-05-26T16:00:00.832Z,1.30
2019-05-26T16:04:19.834Z,1.37
2019-05-26T16:08:38.606Z,2.07
2019-05-26T16:12:57.195Z,1.30
2019-05-26T16:17:16.508Z,1.20
2019-05-26T16:21:34.806Z,1.33
2019-05-26T16:25:53.159Z,1.00
2019-05-26T16:30:12.432Z,1.40
2019-05-26T16:34:30.765Z,1.60
2019-05-26T16:38:49.284Z,1.10
2019-05-26T16:43:07.742Z,1.10
2019-05-26T16:47:26.175Z,1.20
2019-05-26T16:51:44.790Z,1.10
2019-05-26T16:56:03.078Z,1.50
2019-05-26T17:00:21.902Z,1.00
2019-05-26T17:04:40.536Z,1.20
2019-05-26T17:09:00.327Z,1.20
2019-05-26T17:13:19.929Z,1.67
2019-05-26T17:17:38.108Z,1.40
2019-05-26T17:21:56.337Z,1.33
2019-05-26T17:26:16.111Z,1.60
2019-05-26T17:30:34.265Z,1.43
2019-05-26T17:34:52.830Z,1.30
2019-05-26T17:39:11.181Z,1.20
2019-05-26T17:43:29.467Z,1.50
2019-05-26T17:47:48.119Z,1.20
2019-05-26T17:52:06.657Z,1.40
2019-05-26T17:56:24.893Z,1.10
2019-05-26T18:00:43.331Z,1.13
2019-05-26T18:05:02.421Z,1.17
2019-05-26T18:09:21.245Z,1.10
2019-05-26T18:13:39.395Z,1.30
2019-05-26T18:17:57.676Z,1.10
2019-05-26T18:22:16.169Z,1.10
2019-05-26T18:26:34.447Z,2.27
2019-05-26T18:30:53.530Z,1.20
2019-05-26T18:35:12.348Z,1.07
2019-05-26T18:39:30.786Z,1.20
2019-05-26T18:43:49.391Z,1.20
2019-05-26T18:48:07.572Z,1.10
2019-05-26T18:52:25.949Z,1.00
2019-05-26T18:56:44.201Z,1.10
2019-05-26T19:01:02.325Z,1.10
2019-05-26T19:05:32.895Z,1.03
2019-05-26T19:09:41.663Z,1.10
2019-05-26T19:14:00.017Z,1.20
2019-05-26T19:18:20.267Z,1.10
2019-05-26T19:22:38.614Z,1.00
2019-05-26T19:26:57.188Z,1.20
2019-05-26T19:31:15.978Z,1.50
2019-05-26T19:35:34.313Z,1.20
2019-05-26T19:39:53.075Z,1.20
2019-05-26T19:44:11.239Z,1.30
2019-05-26T19:48:37.028Z,1.30
2019-05-26T19:52:53.300Z,1.20
2019-05-26T19:57:12.026Z,1.10
2019-05-26T20:01:30.544Z,1.10
2019-05-26T20:05:49.514Z,1.00
2019-05-26T20:10:10.532Z,1.13
2019-05-26T20:14:29.565Z,1.10
2019-05-26T20:18:48.196Z,1.03
2019-05-26T20:23:06.486Z,2.50
2019-05-26T20:27:25.937Z,1.30
2019-05-26T20:31:44.585Z,1.30
2019-05-26T20:36:03.540Z,1.10
2019-05-26T20:40:23.236Z,2.03
2019-05-26T20:44:42.018Z,1.43
2019-05-26T20:49:00.551Z,1.10
2019-05-26T20:53:19.912Z,1.20
2019-05-26T20:57:38.798Z,1.10
2019-05-26T21:01:57.239Z,1.10
2019-05-26T21:06:16.335Z,1.10
2019-05-26T21:10:35.175Z,1.00
2019-05-26T21:14:53.847Z,1.23
2019-05-26T21:19:12.402Z,1.00
2019-05-26T21:23:32.326Z,1.00
2019-05-26T21:27:51.132Z,1.00
2019-05-26T21:32:09.406Z,1.10
2019-05-26T21:36:27.709Z,1.53
2019-05-26T21:40:46.071Z,1.07
2019-05-26T21:45:04.347Z,1.00
2019-05-26T21:49:22.628Z,1.00
2019-05-26T21:53:40.884Z,1.20
2019-05-26T21:57:59.284Z,1.00
2019-05-26T22:02:17.506Z,1.20
2019-05-26T22:06:36.123Z,1.20
2019-05-26T22:10:54.682Z,1.10
2019-05-26T22:15:15.914Z,1.20
2019-05-26T22:19:34.260Z,1.10
2019-05-26T22:23:52.939Z,1.10
2019-05-26T22:28:11.544Z,1.07
2019-05-26T22:32:29.688Z,1.23
2019-05-26T22:36:47.984Z,1.00
2019-05-26T22:41:06.197Z,1.63
2019-05-26T22:45:24.400Z,1.10
2019-05-26T22:49:42.944Z,1.03
2019-05-26T22:54:01.080Z,1.20
2019-05-26T22:58:19.282Z,1.00
2019-05-26T23:02:37.432Z,1.10
2019-05-26T23:06:55.582Z,1.10
2019-05-26T23:11:14.249Z,1.10
2019-05-26T23:15:33.085Z,0.90
2019-05-26T23:19:51.463Z,1.10
2019-05-26T23:24:09.766Z,1.00
2019-05-26T23:28:27.869Z,1.10
2019-05-26T23:32:47.186Z,0.90
2019-05-26T23:37:05.789Z,1.10
2019-05-26T23:41:23.882Z,1.20
2019-05-26T23:45:43.113Z,1.00
2019-05-26T23:50:01.996Z,1.00
2019-05-26T23:54:20.344Z,1.10
2019-05-26T23:58:38.524Z,1.17
